Time;durP1;ratioP1;P1;durP2;ratioP2;P2;SDS_P1;SDS_P2;PMS_P1;PMS_P2;Temp;Humidity;BMP_temperature;BMP_pressure;BME280_temperature;BME280_humidity;BME280_pressure;Samples;Min_cycle;Max_cycle;Signal;HPM_P1;HPM_P2
2023/10/13 00:00:25;;;;;;;15.30;11.68;;;;;;;20.87;67.95;100653.63;689163;28;1421;-90
2023/10/13 00:00:42;;;;;;;17.77;12.00;;;;;;;20.94;67.81;100655.28;691261;28;1313;-90
2023/10/13 00:01:06;;;;;;;19.33;12.10;;;;;;;20.89;67.89;100651.84;693834;28;1198;-91
2023/10/13 00:01:27;;;;;;;18.23;11.70;;;;;;;20.96;67.88;100669.38;691513;28;1238;-92
2023/10/13 00:01:51;;;;;;;19.60;11.60;;;;;;;20.88;68.00;100658.91;696894;28;1147;-93
2023/10/13 00:02:13;;;;;;;18.42;10.98;;;;;;;20.97;67.93;100668.50;688739;28;1103;-93
2023/10/13 00:02:34;;;;;;;17.90;11.10;;;;;;;20.89;67.85;100651.84;687976;28;1335;-91
2023/10/13 00:03:00;;;;;;;16.30;11.88;;;;;;;20.93;67.75;100653.53;691414;28;1285;-91
2023/10/13 00:03:22;;;;;;;15.60;12.50;;;;;;;20.90;68.05;100659.75;688597;28;1205;-94
2023/10/13 00:03:42;;;;;;;15.63;12.57;;;;;;;20.93;67.89;100665.03;691378;28;1312;-91
2023/10/13 00:04:05;;;;;;;15.13;12.38;;;;;;;20.94;67.50;100660.56;694105;28;1198;-93
2023/10/13 00:04:26;;;;;;;15.70;12.30;;;;;;;20.99;67.59;100669.34;691365;28;1239;-94
2023/10/13 00:04:47;;;;;;;15.90;11.93;;;;;;;20.86;67.55;100658.06;691596;28;1255;-92
2023/10/13 00:05:09;;;;;;;15.80;11.57;;;;;;;20.88;67.79;100663.31;690729;28;1157;-91
2023/10/13 00:05:31;;;;;;;14.50;10.95;;;;;;;20.86;67.84;100649.22;693524;28;1327;-90
2023/10/13 00:06:02;;;;;;;14.73;11.55;;;;;;;20.78;67.65;100642.28;691125;28;1224;-92
2023/10/13 00:06:23;;;;;;;15.95;11.77;;;;;;;20.85;67.85;100655.44;687164;28;1203;-92
2023/10/13 00:06:45;;;;;;;16.50;11.80;;;;;;;20.93;67.87;100659.72;688839;28;1215;-94
2023/10/13 00:07:09;;;;;;;18.50;11.73;;;;;;;20.82;67.72;100648.41;686138;28;1323;-92
2023/10/13 00:07:29;;;;;;;18.88;12.18;;;;;;;20.90;68.00;100649.16;688691;28;1294;-92
2023/10/13 00:07:50;;;;;;;15.80;11.52;;;;;;;20.91;67.83;100658.84;694016;28;1236;-91
2023/10/13 00:08:14;;;;;;;13.50;10.73;;;;;;;20.91;67.91;100652.69;691257;28;1185;-90
2023/10/13 00:08:36;;;;;;;13.48;10.60;;;;;;;20.85;67.85;100650.13;691198;28;1257;-91
2023/10/13 00:08:57;;;;;;;17.13;10.63;;;;;;;20.81;67.65;100651.97;691560;28;1411;-93
2023/10/13 00:09:20;;;;;;;17.77;10.82;;;;;;;20.84;67.67;100645.72;688738;28;1204;-90
2023/10/13 00:09:40;;;;;;;18.33;10.55;;;;;;;20.81;67.78;100652.84;688465;28;1704;-94
2023/10/13 00:10:01;;;;;;;17.90;10.43;;;;;;;20.82;67.81;100648.41;691441;28;1326;-92
2023/10/13 00:10:22;;;;;;;17.70;10.32;;;;;;;20.84;67.62;100648.38;694026;28;1307;-91
2023/10/13 00:10:43;;;;;;;16.15;10.20;;;;;;;20.85;67.73;100655.44;691337;28;1308;-91
2023/10/13 00:11:04;;;;;;;14.80;10.32;;;;;;;20.80;67.55;100651.09;691308;28;1223;-91
2023/10/13 00:11:26;;;;;;;13.55;10.45;;;;;;;20.76;67.75;100644.09;694045;28;1412;-91
2023/10/13 00:11:47;;;;;;;14.30;10.85;;;;;;;20.81;67.72;100655.50;690588;28;1328;-90
2023/10/13 00:12:14;;;;;;;13.13;10.98;;;;;;;20.77;67.64;100637.88;685561;28;1240;-94
2023/10/13 00:12:37;;;;;;;14.45;11.15;;;;;;;20.78;67.73;100634.31;691391;28;1529;-93
2023/10/13 00:13:09;;;;;;;17.52;10.98;;;;;;;20.86;67.88;100657.19;688765;28;1242;-91
2023/10/13 00:13:40;;;;;;;16.80;10.88;;;;;;;20.82;67.65;100641.34;693572;28;1448;-94
2023/10/13 00:14:03;;;;;;;20.52;10.85;;;;;;;20.81;67.73;100652.84;696645;28;1222;-91
2023/10/13 00:14:32;;;;;;;21.20;10.85;;;;;;;20.77;67.69;100643.19;689845;28;1623;-91
2023/10/13 00:14:53;;;;;;;16.67;10.73;;;;;;;20.74;67.68;100642.34;688962;28;1303;-93
2023/10/13 00:15:15;;;;;;;14.77;10.32;;;;;;;20.74;68.03;100650.31;688612;28;1367;-93
2023/10/13 00:15:56;;;;;;;13.60;10.10;;;;;;;20.77;67.69;100643.19;685475;28;1282;-91
2023/10/13 00:16:21;;;;;;;13.13;10.60;;;;;;;20.72;67.69;100639.72;685894;28;1361;-90
2023/10/13 00:17:03;;;;;;;12.75;10.45;;;;;;;20.78;68.00;100649.38;688016;28;1255;-91
2023/10/13 00:17:24;;;;;;;16.38;10.65;;;;;;;20.77;67.56;100652.94;691384;28;1238;-92
2023/10/13 00:17:45;;;;;;;16.48;10.40;;;;;;;20.78;67.56;100647.56;688792;28;1252;-93
2023/10/13 00:18:12;;;;;;;16.73;9.90;;;;;;;20.73;67.82;100654.75;685774;28;1272;-91
2023/10/13 00:18:33;;;;;;;16.10;9.90;;;;;;;20.72;67.99;100639.72;688713;28;1153;-91
2023/10/13 00:18:57;;;;;;;15.82;10.02;;;;;;;20.84;67.76;100653.69;691419;28;1281;-92
2023/10/13 00:19:18;;;;;;;13.48;9.70;;;;;;;20.84;67.49;100643.94;688695;28;1323;-94
2023/10/13 00:19:45;;;;;;;12.43;9.77;;;;;;;20.82;67.43;100629.84;694042;28;1299;-90
2023/10/13 00:20:12;;;;;;;12.77;10.43;;;;;;;20.88;67.17;100644.75;688280;28;1367;-92
2023/10/13 00:20:37;;;;;;;15.23;10.95;;;;;;;20.87;67.06;100649.22;688794;28;1390;-94
2023/10/13 00:20:58;;;;;;;16.30;10.95;;;;;;;20.85;67.13;100634.22;694393;28;1341;-93
2023/10/13 00:21:31;;;;;;;15.50;10.95;;;;;;;20.89;66.79;100647.41;690363;28;1977;-92
2023/10/13 00:21:55;;;;;;;12.88;9.75;;;;;;;20.78;67.41;100636.09;691117;28;1215;-91
2023/10/13 00:22:16;;;;;;;14.50;10.38;;;;;;;20.79;67.51;100636.06;690973;28;1396;-89
2023/10/13 00:22:40;;;;;;;14.63;10.70;;;;;;;20.75;67.44;100633.50;686037;28;1306;-93
2023/10/13 00:23:01;;;;;;;16.77;11.10;;;;;;;20.75;67.38;100639.69;689408;28;1257;-92
2023/10/13 00:23:26;;;;;;;16.48;10.45;;;;;;;20.85;67.33;100645.72;695319;28;1176;-93
2023/10/13 00:23:53;;;;;;;15.82;10.35;;;;;;;20.75;67.49;100634.38;694094;28;1272;-92
2023/10/13 00:24:14;;;;;;;15.18;10.70;;;;;;;20.69;67.78;100626.50;688494;28;1365;-93
2023/10/13 00:24:42;;;;;;;17.00;11.10;;;;;;;20.70;67.58;100628.28;691246;28;1306;-92
2023/10/13 00:25:03;;;;;;;15.60;10.57;;;;;;;20.74;67.71;100643.25;691459;28;1374;-91
2023/10/13 00:25:31;;;;;;;15.43;10.20;;;;;;;20.71;67.65;100632.66;690566;28;1318;-91
2023/10/13 00:25:59;;;;;;;15.02;10.15;;;;;;;20.67;67.75;100625.66;688807;28;1325;-90
2023/10/13 00:26:24;;;;;;;13.25;9.80;;;;;;;20.68;67.73;100627.41;688489;28;1376;-93
2023/10/13 00:26:49;;;;;;;12.50;9.52;;;;;;;20.77;67.54;100631.72;691276;28;1258;-93
2023/10/13 00:27:51;;;;;;;15.50;10.50;;;;;;;20.73;67.75;100625.59;691222;28;1419;-90
2023/10/13 00:28:22;;;;;;;15.93;10.13;;;;;;;20.80;67.61;100637.84;691433;28;1279;-94
2023/10/13 00:28:53;;;;;;;15.77;9.90;;;;;;;20.80;67.53;100618.38;685985;28;1450;-92
2023/10/13 00:29:28;;;;;;;15.70;10.38;;;;;;;20.81;67.50;100634.28;691255;28;1168;-91
2023/10/13 00:29:51;;;;;;;16.10;11.00;;;;;;;20.86;67.46;100628.00;694122;28;1431;-90
2023/10/13 00:31:00;;;;;;;15.45;10.70;;;;;;;20.86;67.40;100635.97;688858;28;1386;-91
2023/10/13 00:31:14;;;;;;;14.60;9.80;;;;;;;20.94;67.14;100644.66;682983;28;1321;-91
2023/10/13 00:31:43;;;;;;;14.27;9.77;;;;;;;20.92;67.20;100635.88;688566;28;1476;-90
2023/10/13 00:32:04;;;;;;;12.45;9.27;;;;;;;20.80;67.34;100626.34;691173;28;1548;-91
2023/10/13 00:32:27;;;;;;;12.23;9.15;;;;;;;20.84;67.40;100637.78;688490;28;1188;-90
2023/10/13 00:32:55;;;;;;;12.40;8.95;;;;;;;20.78;67.34;100617.56;694283;28;1369;-91
2023/10/13 00:33:19;;;;;;;11.85;8.63;;;;;;;20.81;67.17;100639.59;685708;28;1405;-90
2023/10/13 00:33:44;;;;;;;12.30;9.20;;;;;;;20.80;67.42;100631.66;687863;28;1489;-93
2023/10/13 00:34:11;;;;;;;13.13;9.10;;;;;;;20.75;67.41;100629.06;688003;28;1286;-93
2023/10/13 00:34:32;;;;;;;14.60;9.93;;;;;;;20.85;67.18;100628.91;690810;28;1269;-91
2023/10/13 00:34:56;;;;;;;15.45;9.85;;;;;;;20.80;67.22;100627.22;688809;28;1226;-94
2023/10/13 00:35:35;;;;;;;20.45;9.65;;;;;;;20.80;67.37;100627.22;688703;28;1358;-91
2023/10/13 00:35:58;;;;;;;21.08;9.30;;;;;;;20.81;67.34;100634.28;694178;28;1325;-91
2023/10/13 00:36:19;;;;;;;16.17;9.68;;;;;;;20.85;67.20;100644.81;684141;28;1277;-93
2023/10/13 00:36:47;;;;;;;12.90;9.35;;;;;;;20.79;67.30;100630.75;688744;28;1320;-90
2023/10/13 00:37:27;;;;;;;15.63;9.30;;;;;;;20.87;67.06;100635.06;688079;28;1340;-91
2023/10/13 00:37:48;;;;;;;16.80;9.75;;;;;;;20.77;67.28;100626.41;690735;28;1380;-91
2023/10/13 00:38:16;;;;;;;13.43;9.27;;;;;;;20.76;67.36;100627.28;688317;28;1230;-92
2023/10/13 00:38:37;;;;;;;13.48;9.40;;;;;;;20.75;67.53;100626.44;691125;28;1206;-91
2023/10/13 00:38:58;;;;;;;13.60;9.63;;;;;;;20.66;67.48;100622.09;691449;28;1200;-92
2023/10/13 00:39:22;;;;;;;13.77;9.90;;;;;;;20.72;67.46;100623.81;693707;28;1456;-93
2023/10/13 00:39:45;;;;;;;13.10;9.05;;;;;;;20.80;67.37;100643.16;691432;28;1469;-90
2023/10/13 00:40:17;;;;;;;13.88;9.80;;;;;;;20.74;67.23;100624.69;691430;28;1222;-91
2023/10/13 00:41:14;;;;;;;11.70;8.73;;;;;;;20.74;67.17;100627.34;693850;28;1224;-92
2023/10/13 00:41:57;;;;;;;12.75;8.90;;;;;;;20.78;67.22;100629.00;691584;28;1412;-91
2023/10/13 00:42:19;;;;;;;13.98;10.05;;;;;;;20.84;67.50;100627.16;690628;28;1328;-92
2023/10/13 00:42:52;;;;;;;15.23;10.68;;;;;;;20.78;67.57;100615.75;688678;28;1325;-92
2023/10/13 00:44:04;;;;;;;14.43;9.50;;;;;;;20.81;67.27;100621.03;688414;28;1268;-92
2023/10/13 00:44:44;;;;;;;12.77;9.25;;;;;;;20.78;67.21;100618.41;685292;28;1368;-89
2023/10/13 00:45:05;;;;;;;14.10;9.38;;;;;;;20.75;67.45;100615.81;688544;28;1456;-90
2023/10/13 00:45:28;;;;;;;15.38;8.75;;;;;;;20.74;67.36;100621.13;688583;28;1292;-90
2023/10/13 00:46:05;;;;;;;17.70;9.20;;;;;;;20.83;67.14;100631.59;686062;28;1296;-88
2023/10/13 00:46:33;;;;;;;16.73;9.88;;;;;;;20.84;67.10;100627.16;688565;28;1387;-93
2023/10/13 00:46:56;;;;;;;14.68;9.65;;;;;;;20.73;67.12;100620.28;685529;28;1344;-90
2023/10/13 00:48:15;;;;;;;16.63;9.32;;;;;;;20.75;67.27;100617.59;688344;28;1320;-93
2023/10/13 00:48:54;;;;;;;16.02;8.90;;;;;;;20.72;67.35;100605.25;691206;28;1320;-94
2023/10/13 00:49:16;;;;;;;12.43;8.77;;;;;;;20.80;67.20;100608.66;683210;28;1241;-92
2023/10/13 00:49:39;;;;;;;12.63;9.20;;;;;;;20.79;67.27;100604.25;685735;28;1175;-93
2023/10/13 00:51:47;;;;;;;17.23;9.52;;;;;;;20.90;66.69;100616.47;685714;28;1225;-90
2023/10/13 00:52:10;;;;;;;14.27;9.07;;;;;;;20.86;67.05;100615.63;683179;29;1312;-90
2023/10/13 00:52:35;;;;;;;13.30;9.40;;;;;;;20.85;66.98;100605.94;683152;29;1224;-89
2023/10/13 00:52:56;;;;;;;15.20;9.60;;;;;;;20.90;67.02;100617.31;683949;28;1404;-89
2023/10/13 00:53:17;;;;;;;23.00;10.40;;;;;;;20.86;66.84;100612.09;680415;29;1182;-91
2023/10/13 00:53:40;;;;;;;24.08;11.05;;;;;;;20.89;66.89;100612.06;688023;28;1323;-90
2023/10/13 00:54:10;;;;;;;20.23;10.98;;;;;;;20.85;66.92;100599.75;691388;28;1398;-92
2023/10/13 00:54:31;;;;;;;15.27;9.52;;;;;;;20.84;66.98;100601.50;683049;28;1248;-93
2023/10/13 00:54:53;;;;;;;15.03;9.50;;;;;;;20.81;67.03;100597.16;687681;28;1245;-92
2023/10/13 00:56:49;;;;;;;13.35;8.93;;;;;;;20.77;67.08;100602.53;689362;28;1406;-91
2023/10/13 00:57:29;;;;;;;14.13;9.45;;;;;;;20.78;66.95;100594.53;695170;28;1160;-92
2023/10/13 00:58:12;;;;;;;12.70;9.52;;;;;;;20.75;67.13;100597.25;694325;28;692;-93
2023/10/13 00:58:52;;;;;;;13.93;9.80;;;;;;;20.73;67.04;100596.41;691590;28;685;-91
2023/10/13 00:59:16;;;;;;;13.20;9.90;;;;;;;20.75;67.07;100599.91;696837;28;1438;-92
2023/10/13 00:59:36;;;;;;;13.05;9.60;;;;;;;20.80;66.95;100607.78;688780;28;1378;-93
2023/10/13 00:59:59;;;;;;;12.45;9.38;;;;;;;20.76;67.05;100596.34;693567;28;1335;-93
2023/10/13 01:00:25;;;;;;;13.82;9.80;;;;;;;20.83;66.87;100602.41;696387;28;1365;-91
2023/10/13 01:00:55;;;;;;;13.63;9.90;;;;;;;20.80;66.86;100606.03;696994;28;838;-94
2023/10/13 01:01:21;;;;;;;12.55;9.02;;;;;;;20.81;66.90;100601.56;694060;28;1914;-90
2023/10/13 01:01:43;;;;;;;12.30;8.85;;;;;;;20.73;66.99;100593.78;688318;28;1248;-90
2023/10/13 01:05:19;;;;;;;14.48;10.10;;;;;;;20.87;66.96;100612.06;697513;28;881;-92
2023/10/13 01:08:03;;;;;;;10.80;9.10;;;;;;;20.92;66.73;100604.94;699886;28;675;-91
2023/10/13 01:08:50;;;;;;;11.93;8.68;;;;;;;20.88;66.63;100602.31;694337;28;704;-91
2023/10/13 01:09:42;;;;;;;11.52;8.98;;;;;;;20.79;66.77;100585.69;694107;28;685;-92
2023/10/13 01:10:27;;;;;;;10.80;8.80;;;;;;;20.79;66.79;100587.47;698484;28;709;-91
2023/10/13 01:10:49;;;;;;;10.88;8.40;;;;;;;20.81;66.80;100593.63;688158;28;1340;-91
2023/10/13 01:11:10;;;;;;;14.38;9.10;;;;;;;20.85;66.78;100586.47;691429;28;1655;-90
2023/10/13 01:11:31;;;;;;;15.60;9.15;;;;;;;20.80;66.79;100584.81;694136;28;1124;-91
2023/10/13 01:11:52;;;;;;;15.70;9.13;;;;;;;20.86;66.71;100593.53;688444;28;1313;-92
2023/10/13 01:12:14;;;;;;;11.88;8.73;;;;;;;20.87;66.63;100595.28;691301;28;1197;-90
2023/10/13 01:12:35;;;;;;;12.95;8.48;;;;;;;20.81;66.72;100596.28;691345;28;1239;-93
2023/10/13 01:12:56;;;;;;;12.67;8.13;;;;;;;20.83;66.90;100589.16;691284;28;1259;-93
2023/10/13 01:13:17;;;;;;;15.57;8.25;;;;;;;20.84;66.61;100590.03;688431;28;1447;-92
2023/10/13 01:13:38;;;;;;;14.07;8.30;;;;;;;20.86;66.71;100596.19;685992;28;1266;-92
2023/10/13 01:14:02;;;;;;;13.63;8.40;;;;;;;20.90;66.62;100600.56;693739;28;1236;-91
2023/10/13 01:14:27;;;;;;;12.80;8.48;;;;;;;20.88;66.66;100587.31;694068;28;1351;-91
2023/10/13 01:14:48;;;;;;;15.38;8.75;;;;;;;20.92;66.61;100598.72;691437;28;1230;-92
2023/10/13 01:15:11;;;;;;;16.65;8.77;;;;;;;20.90;66.60;100592.59;694090;28;1462;-93
2023/10/13 01:15:35;;;;;;;15.05;9.10;;;;;;;20.86;66.72;100586.47;696919;28;1397;-91
2023/10/13 01:15:56;;;;;;;14.00;8.88;;;;;;;20.88;66.62;100581.09;688659;28;1389;-91
2023/10/13 01:16:23;;;;;;;13.68;8.63;;;;;;;20.88;66.47;100581.09;696117;28;1237;-90
2023/10/13 01:16:45;;;;;;;16.58;8.35;;;;;;;20.91;66.56;100589.03;691427;28;1374;-93
2023/10/13 01:17:06;;;;;;;16.15;8.27;;;;;;;20.84;66.47;100582.09;693248;28;1239;-93
2023/10/13 01:17:31;;;;;;;11.85;8.60;;;;;;;20.88;66.69;100594.38;690636;28;1210;-89
2023/10/13 01:17:56;;;;;;;11.93;8.10;;;;;;;20.95;66.54;100591.59;688650;28;1285;-90
2023/10/13 01:18:17;;;;;;;16.17;9.20;;;;;;;20.88;66.41;100586.41;691374;28;1315;-92
2023/10/13 01:18:47;;;;;;;16.15;9.10;;;;;;;20.87;66.42;100589.97;691185;28;1331;-91
2023/10/13 01:19:11;;;;;;;16.02;8.63;;;;;;;20.84;66.73;100582.09;692952;28;1225;-91
2023/10/13 01:19:38;;;;;;;12.63;8.02;;;;;;;20.83;66.57;100581.19;692587;28;1287;-90
2023/10/13 01:19:59;;;;;;;11.68;8.50;;;;;;;20.81;66.76;100578.59;688753;28;1216;-92
2023/10/13 01:24:19;;;;;;;12.30;8.95;;;;;;;20.76;66.61;100580.44;702580;28;1407;-89
2023/10/13 01:24:40;;;;;;;11.25;8.50;;;;;;;20.71;66.67;100579.63;696835;28;1276;-93
2023/10/13 01:25:07;;;;;;;12.35;8.95;;;;;;;20.73;66.63;100576.97;686036;28;1335;-91
2023/10/13 01:30:05;;;;;;;12.05;8.27;;;;;;;20.80;67.01;100583.91;699703;28;680;-91
2023/10/13 01:30:50;;;;;;;12.52;8.38;;;;;;;20.81;66.88;100572.41;705299;28;706;-92
2023/10/13 01:31:30;;;;;;;14.68;8.30;;;;;;;20.77;66.79;100582.19;697743;28;859;-90
2023/10/13 01:32:12;;;;;;;16.58;8.90;;;;;;;20.74;66.73;100571.66;696383;28;1038;-91
2023/10/13 01:33:29;;;;;;;15.82;8.88;;;;;;;20.86;66.57;100574.97;691244;28;1312;-92
2023/10/13 01:34:08;;;;;;;12.30;8.80;;;;;;;20.81;66.49;100570.63;691260;28;1172;-93
2023/10/13 01:34:49;;;;;;;12.40;8.68;;;;;;;20.77;66.70;100566.28;691432;28;1118;-92
2023/10/13 01:35:36;;;;;;;10.38;7.93;;;;;;;20.75;66.56;100569.84;693055;28;775;-89
2023/10/13 01:36:16;;;;;;;10.50;8.30;;;;;;;20.73;66.86;100561.94;693717;28;1107;-91
2023/10/13 01:36:55;;;;;;;10.43;8.27;;;;;;;20.80;66.65;100563.59;694215;28;686;-90
2023/10/13 01:37:23;;;;;;;11.48;7.82;;;;;;;20.84;66.62;100567.03;687761;28;1284;-90
2023/10/13 01:37:44;;;;;;;14.38;8.55;;;;;;;20.87;66.63;100568.75;690525;28;1206;-93
2023/10/13 01:38:05;;;;;;;12.52;8.23;;;;;;;20.84;66.45;100558.22;688496;28;1260;-92
2023/10/13 01:38:27;;;;;;;12.67;8.27;;;;;;;20.85;66.58;100549.34;685879;28;1216;-93
2023/10/13 01:38:53;;;;;;;12.13;8.00;;;;;;;20.93;66.52;100571.31;688611;28;1330;-92
2023/10/13 01:39:16;;;;;;;17.60;8.80;;;;;;;20.87;66.60;100555.50;685823;28;1270;-89
2023/10/13 01:39:37;;;;;;;16.77;8.70;;;;;;;20.88;66.69;100565.19;690452;28;1292;-93
2023/10/13 01:39:58;;;;;;;16.50;8.70;;;;;;;20.83;66.55;100562.63;688153;28;1189;-89
2023/10/13 01:40:20;;;;;;;12.80;8.43;;;;;;;20.91;66.67;100560.72;688506;28;1353;-90
2023/10/13 01:40:42;;;;;;;12.15;8.40;;;;;;;20.98;66.32;100574.75;693838;28;1308;-91
2023/10/13 01:41:06;;;;;;;11.90;8.25;;;;;;;20.88;66.49;100562.53;696336;28;1219;-94
2023/10/13 01:41:27;;;;;;;10.98;7.95;;;;;;;20.92;66.53;100565.16;690949;28;1926;-91
2023/10/13 01:41:55;;;;;;;11.40;7.95;;;;;;;20.97;66.35;100562.41;685524;28;1317;-92
2023/10/13 01:42:22;;;;;;;11.63;7.80;;;;;;;20.88;66.47;100549.28;685550;28;1239;-89
2023/10/13 01:42:45;;;;;;;10.65;8.00;;;;;;;20.96;66.49;100563.28;691147;28;1355;-93
2023/10/13 01:43:10;;;;;;;9.65;7.60;;;;;;;20.93;66.36;100558.03;693941;28;1061;-90
2023/10/13 01:43:31;;;;;;;10.13;7.95;;;;;;;20.94;66.61;100565.97;688546;28;1349;-89
2023/10/13 01:43:52;;;;;;;11.18;8.30;;;;;;;20.90;66.53;100563.41;687732;28;1237;-93
2023/10/13 01:44:14;;;;;;;10.97;8.40;;;;;;;20.90;66.58;100561.63;688454;28;1193;-91
2023/10/13 01:44:35;;;;;;;11.18;8.48;;;;;;;21.00;66.25;100564.97;690991;28;1260;-91
2023/10/13 01:45:05;;;;;;;11.63;8.52;;;;;;;21.02;66.15;100563.16;696593;28;1231;-89
2023/10/13 01:45:28;;;;;;;13.70;8.70;;;;;;;21.04;66.17;100561.38;696598;28;1341;-92
2023/10/13 01:45:49;;;;;;;12.75;8.43;;;;;;;21.04;66.28;100561.38;688309;28;1328;-90
2023/10/13 01:46:13;;;;;;;12.07;8.35;;;;;;;21.00;65.93;100553.50;693611;28;1294;-92
2023/10/13 01:46:36;;;;;;;11.93;8.60;;;;;;;20.98;66.27;100556.19;693963;28;1337;-90
2023/10/13 01:47:07;;;;;;;11.45;7.90;;;;;;;21.04;66.14;100544.59;691065;28;1373;-89
2023/10/13 01:47:27;;;;;;;10.63;7.80;;;;;;;21.04;66.21;100557.84;684981;28;1278;-90
2023/10/13 01:47:50;;;;;;;11.45;8.40;;;;;;;21.04;66.13;100553.44;693956;28;1194;-91
2023/10/13 01:48:11;;;;;;;11.60;8.65;;;;;;;21.03;66.18;100546.34;688120;28;1302;-92
2023/10/13 01:48:33;;;;;;;10.27;8.05;;;;;;;21.00;66.12;100545.53;683126;28;1254;-92
2023/10/13 01:48:54;;;;;;;9.13;7.85;;;;;;;21.00;66.12;100556.13;683194;28;1803;-91
2023/10/13 01:49:18;;;;;;;11.55;7.90;;;;;;;20.99;66.06;100549.97;688539;28;1312;-92
2023/10/13 01:49:49;;;;;;;13.00;8.43;;;;;;;21.02;66.29;100551.69;688444;28;1213;-90
2023/10/13 01:50:19;;;;;;;10.68;7.80;;;;;;;21.03;66.20;100543.69;693871;28;1321;-92
2023/10/13 01:50:39;;;;;;;9.05;7.20;;;;;;;21.08;66.05;100552.44;691069;28;1374;-93
2023/10/13 01:51:02;;;;;;;8.45;7.03;;;;;;;21.04;65.88;100544.59;688799;28;1233;-92
2023/10/13 01:51:23;;;;;;;10.77;7.20;;;;;;;21.01;65.92;100548.16;694093;28;1335;-91
2023/10/13 01:51:47;;;;;;;10.75;7.25;;;;;;;21.01;66.18;100549.97;696739;28;1259;-91
2023/10/13 01:52:11;;;;;;;10.25;7.10;;;;;;;20.98;66.34;100556.19;693736;28;1219;-91
2023/10/13 01:52:32;;;;;;;9.18;7.38;;;;;;;20.93;66.17;100544.78;685801;28;1278;-92
2023/10/13 01:53:00;;;;;;;10.88;8.00;;;;;;;21.02;66.21;100543.75;691179;28;1279;-93
2023/10/13 01:53:22;;;;;;;12.85;8.40;;;;;;;21.01;66.19;100534.91;693772;28;1509;-92
2023/10/13 01:53:43;;;;;;;13.50;8.10;;;;;;;21.05;66.02;100541.00;688550;28;1352;-90
2023/10/13 01:54:04;;;;;;;14.05;8.02;;;;;;;21.02;66.16;100534.00;693795;28;1251;-91
2023/10/13 01:54:25;;;;;;;12.52;7.60;;;;;;;21.00;66.17;100533.16;693797;28;1196;-89
2023/10/13 01:54:48;;;;;;;12.20;8.27;;;;;;;21.10;65.86;100544.47;693808;28;1203;-93
2023/10/13 01:55:11;;;;;;;10.75;8.18;;;;;;;21.05;66.10;100541.91;688096;28;1392;-91
2023/10/13 01:55:39;;;;;;;18.17;8.48;;;;;;;21.06;66.07;100543.66;693894;28;1489;-93
2023/10/13 01:56:05;;;;;;;18.10;8.27;;;;;;;21.10;65.94;100547.97;693606;28;1253;-91
2023/10/13 01:56:31;;;;;;;17.83;8.30;;;;;;;21.05;66.01;100536.59;690823;28;1365;-94
2023/10/13 01:56:51;;;;;;;11.27;8.48;;;;;;;21.03;65.97;100537.53;693883;28;1358;-91
2023/10/13 01:57:18;;;;;;;11.37;8.40;;;;;;;21.03;66.22;100537.53;691064;28;1304;-90
2023/10/13 01:57:42;;;;;;;9.88;7.88;;;;;;;21.10;65.91;100542.66;688323;28;1299;-93
2023/10/13 01:58:03;;;;;;;9.48;7.45;;;;;;;21.07;65.88;100537.44;690786;28;1298;-93
2023/10/13 01:58:26;;;;;;;12.82;8.00;;;;;;;21.14;65.92;100545.28;692920;28;1307;-90
2023/10/13 01:58:47;;;;;;;12.85;8.00;;;;;;;21.06;65.95;100537.47;696438;28;1496;-88
2023/10/13 01:59:10;;;;;;;15.63;8.40;;;;;;;21.07;66.24;100529.47;688489;28;1149;-94
2023/10/13 01:59:31;;;;;;;12.82;7.70;;;;;;;21.04;65.83;100529.56;687955;28;1316;-93
2023/10/13 01:59:52;;;;;;;13.88;8.07;;;;;;;21.12;66.05;100536.44;691077;28;1144;-91
2023/10/13 02:00:18;;;;;;;12.13;8.48;;;;;;;21.10;65.80;100540.00;682714;28;1218;-93
2023/10/13 02:00:41;;;;;;;10.55;8.02;;;;;;;21.08;66.05;100544.50;688366;28;1295;-89
2023/10/13 02:01:07;;;;;;;9.40;7.82;;;;;;;21.13;65.85;100538.22;693348;28;1540;-91
2023/10/13 02:01:34;;;;;;;11.30;8.10;;;;;;;21.09;66.14;100540.94;693076;28;1976;-91
2023/10/13 02:01:58;;;;;;;10.82;7.82;;;;;;;21.06;66.02;100537.47;688659;28;1221;-90
2023/10/13 02:02:28;;;;;;;10.30;7.35;;;;;;;21.04;66.16;100532.19;691141;28;1204;-92
2023/10/13 02:02:50;;;;;;;11.98;7.38;;;;;;;21.08;66.47;100536.53;694049;28;1263;-91
2023/10/13 02:03:17;;;;;;;12.75;7.65;;;;;;;21.08;65.92;100531.22;691196;28;1281;-92
2023/10/13 02:03:46;;;;;;;10.90;7.82;;;;;;;21.13;65.93;100535.56;696543;28;1340;-91
2023/10/13 02:04:10;;;;;;;12.02;7.97;;;;;;;21.07;65.85;100526.81;693888;28;1458;-89
2023/10/13 02:04:42;;;;;;;12.15;8.05;;;;;;;21.09;65.91;100530.31;691320;28;1450;-91
2023/10/13 02:05:02;;;;;;;11.25;7.65;;;;;;;21.12;65.90;100539.09;691400;28;1449;-92
2023/10/13 02:05:32;;;;;;;11.45;7.53;;;;;;;21.08;66.11;100533.88;688491;28;1267;-93
2023/10/13 02:05:57;;;;;;;12.02;7.70;;;;;;;21.05;66.04;100528.66;694032;28;1310;-91
2023/10/13 02:06:23;;;;;;;12.00;8.05;;;;;;;21.10;66.10;100540.00;699412;28;1291;-93
2023/10/13 02:06:44;;;;;;;11.18;7.85;;;;;;;21.10;65.95;100531.19;688531;28;1258;-92
2023/10/13 02:07:08;;;;;;;12.20;8.20;;;;;;;21.07;66.15;100540.09;693754;28;1258;-93
2023/10/13 02:07:34;;;;;;;12.15;8.23;;;;;;;21.12;66.06;100542.66;691283;28;1185;-92
2023/10/13 02:07:58;;;;;;;11.55;8.10;;;;;;;21.04;66.09;100518.06;691435;28;1274;-93
2023/10/13 02:08:47;;;;;;;10.88;7.50;;;;;;;21.09;66.03;100530.31;688596;28;1233;-90
2023/10/13 02:09:12;;;;;;;12.90;7.90;;;;;;;21.10;65.96;100529.41;688340;28;1222;-92
2023/10/13 02:09:36;;;;;;;12.32;7.50;;;;;;;21.11;66.15;100532.94;688502;28;1371;-93
2023/10/13 02:09:57;;;;;;;13.02;7.32;;;;;;;21.08;66.06;100525.03;690852;28;1337;-92
2023/10/13 02:10:23;;;;;;;12.95;7.32;;;;;;;21.13;66.02;100532.94;691070;28;1265;-92
2023/10/13 02:10:46;;;;;;;12.50;7.60;;;;;;;21.05;66.22;100523.34;688597;28;1332;-93
2023/10/13 02:11:07;;;;;;;10.25;7.70;;;;;;;21.07;66.01;100531.25;685892;28;1238;-92
2023/10/13 02:11:28;;;;;;;9.27;6.95;;;;;;;21.08;66.31;100528.56;693883;28;1216;-93
2023/10/13 02:11:54;;;;;;;9.63;7.35;;;;;;;21.10;65.97;100518.78;691143;28;1372;-93
2023/10/13 02:12:15;;;;;;;10.40;7.57;;;;;;;21.02;66.16;100518.06;688411;28;1375;-93
2023/10/13 02:12:42;;;;;;;10.48;7.95;;;;;;;21.05;66.12;100520.69;688698;28;1223;-92
2023/10/13 02:13:03;;;;;;;10.77;8.00;;;;;;;21.09;65.96;100522.34;691256;28;1414;-92
2023/10/13 02:13:26;;;;;;;10.55;7.65;;;;;;;21.10;66.18;100529.41;691108;28;1239;-93
2023/10/13 02:13:50;;;;;;;11.32;7.43;;;;;;;21.08;66.01;100522.38;694013;28;1203;-92
2023/10/13 02:14:16;;;;;;;10.93;7.45;;;;;;;21.08;66.06;100525.03;691102;28;1362;-92
2023/10/13 02:14:37;;;;;;;9.50;7.40;;;;;;;21.07;66.13;100526.81;696595;28;1223;-92
2023/10/13 02:15:01;;;;;;;9.05;7.28;;;;;;;21.09;66.18;100521.50;694002;28;1256;-92
2023/10/13 02:15:25;;;;;;;8.90;7.10;;;;;;;21.04;66.27;100508.34;693827;28;1334;-89
2023/10/13 02:15:51;;;;;;;10.98;7.70;;;;;;;21.09;66.24;100526.81;693915;28;1380;-91
2023/10/13 02:16:13;;;;;;;11.10;7.78;;;;;;;21.05;66.29;100519.78;688253;28;1250;-92
2023/10/13 02:16:36;;;;;;;9.85;7.25;;;;;;;21.05;66.25;100519.78;693912;28;1291;-92
2023/10/13 02:17:21;;;;;;;10.05;7.15;;;;;;;21.06;66.38;100518.88;693314;28;1260;-92
2023/10/13 02:17:42;;;;;;;15.90;7.60;;;;;;;21.07;66.38;100534.78;690887;28;1352;-93
2023/10/13 02:18:03;;;;;;;14.80;7.50;;;;;;;21.04;66.28;100526.91;691197;28;1313;-93
2023/10/13 02:18:27;;;;;;;9.48;7.20;;;;;;;21.07;66.21;100524.19;696680;28;1254;-91
2023/10/13 02:18:51;;;;;;;10.85;7.13;;;;;;;21.05;66.22;100518.03;688398;28;1270;-92
2023/10/13 02:19:15;;;;;;;17.13;7.78;;;;;;;20.96;66.12;100502.28;693631;28;1227;-93
2023/10/13 02:19:39;;;;;;;17.92;7.90;;;;;;;21.01;66.26;100513.69;692994;28;1392;-93
2023/10/13 02:20:07;;;;;;;13.52;7.45;;;;;;;20.99;66.32;100511.94;685882;28;1438;-93
2023/10/13 02:20:33;;;;;;;10.65;7.30;;;;;;;20.99;66.42;100520.81;691140;28;1237;-92
2023/10/13 02:20:56;;;;;;;12.43;7.60;;;;;;;20.98;66.38;100513.75;690796;28;1259;-92